KJDD

Details ICAO KJDD
Name WOOD CO
Region United States
Timezone America/Chicago (UTC-6.0)
Plans Departing 2
Arriving 1
Stats Elevation 434 ft / 132 m (AMSL)
Location 32.742202° -95.496475°
Runways 1
Magnetic Variation 2.490° E
Sunrise 2017-12-12 13:16:30 UTC / 2017-12-12 07:16:30 Local
Sunset 2017-12-12 23:18:02 UTC / 2017-12-12 17:18:02 Local
Advertisement - Login to hide

Runways

ID Width Length Bearing (true) Bearing (mag) Surface Threshold Offset Overrun Length
18 60 ft / 18 m 4,013 ft / 1,223 m 182.12° 179.63° Asphalt 0 ft / 0 m 0 ft / 0 m
36 60 ft / 18 m 4,013 ft / 1,223 m 2.12° 359.63° Asphalt 0 ft / 0 m 0 ft / 0 m

Map

Weather


0- 5 10 15 20 25 30 35+ Temperature / ° C

Clouds and Precipitation
Forecast for 2017-12-12 12:00 UTC. Updated an hour ago

Ground ~20,000 ft ~40,000 ft Winds

METAR

KJDD 120835Z AUTO 35011G18KT 10SM CLR 11/M04 A3024 RMK AO2

TAF

Not found

Frequencies

Recorded 118.90 MHz AWOS 3
Approach 128.75 MHz LONGVIEW APP/DEP
Unicom 122.80 MHz CTAF/UNICOM
Warning: Do not use this data for real-world aviation or navigation. No guarantee of current accuracy is given.